Finita R — E.C.O.E — position and weather

sailwx.info

Track history (hours):
 
Tides and Currents Weather Stations Pressure Air Temp Water Temp Dewpoint Dewpoint Depression Visibility Wind Speed Wind Dir Waves Ship Positions

Finita R

Last reported at 2018-Jun-20 18:51 UTC. Time now 2018-Jun-20 21:07 UTC.
Position N 39°37' W 000°09'.

Length 100 m; draft 6.5 m.

Type: Cargo ship. MMSI: 225388000.

Date/timePositionNaut miles runAvg speedWind from/ knotsBaromVisibWave heightAir tempDewpointWater temp
2018-Jun-20 18:51N 39°37' W 000°09'0 0.1
2018-Jun-20 18:27N 39°37' W 000°09'0 0.1
2018-Jun-20 18:00N 39°37' W 000°09'0 0.0
2018-Jun-20 17:30N 39°37' W 000°09'0 0.0
2018-Jun-20 17:00N 39°37' W 000°09'0 0.0
2018-Jun-20 16:30N 39°37' W 000°09'0 0.0
2018-Jun-20 15:57N 39°37' W 000°09'0 0.0
2018-Jun-20 15:27N 39°37' W 000°09'0 0.0
2018-Jun-20 15:00N 39°37' W 000°09'0 0.0
2018-Jun-20 14:30N 39°37' W 000°09'0 0.0
2018-Jun-20 14:00N 39°37' W 000°09'0 0.0
2018-Jun-20 13:30N 39°37' W 000°09'0 0.0
2018-Jun-20 12:48N 39°37' W 000°09'0 0.0
2018-Jun-20 12:15N 39°37' W 000°09'0 0.0
2018-Jun-20 12:00N 39°37' W 000°09'0 0.0
2018-Jun-20 11:30N 39°37' W 000°09'0 0.0
2018-Jun-20 11:00N 39°37' W 000°09'23 0.7
2018-Jun-18 23:39N 39°58' E 000°03'0 0.0
2018-Jun-18 23:21N 39°58' E 000°03'15 0.5
2018-Jun-17 13:45N 39°44' E 000°11'311.7
2018-Jun-17 13:30N 39°41' E 000°12'5112.1
2018-Jun-17 09:19N 38°52' E 000°27'711.7
2018-Jun-17 08:41N 38°44' E 000°29'211.8
2018-Jun-17 08:30N 38°43' E 000°28'611.5
2018-Jun-17 08:00N 38°38' E 000°24'611.9
2018-Jun-17 07:30N 38°33' E 000°19'611.5
2018-Jun-17 07:00N 38°28' E 000°15'611.5
2018-Jun-17 06:28N 38°23' E 000°11'611.5
2018-Jun-17 05:59N 38°18' E 000°07'611.4
2018-Jun-17 05:30N 38°14' E 000°04'611.5
2018-Jun-17 05:00N 38°09' W 000°01'611.5
2018-Jun-17 04:30N 38°04' W 000°05'611.6
2018-Jun-17 03:59N 37°59' W 000°09'611.7
2018-Jun-17 03:29N 37°54' W 000°13'611.6
2018-Jun-17 02:59N 37°49' W 000°17'611.3
2018-Jun-17 02:30N 37°45' W 000°21'611.2
2018-Jun-17 02:00N 37°40' W 000°25'611.1
2018-Jun-17 01:30N 37°36' W 000°29'611.3
2018-Jun-17 01:00N 37°31' W 000°33'611.5
2018-Jun-17 00:30N 37°27' W 000°39'611.5
2018-Jun-17 00:00N 37°24' W 000°44'611.4
2018-Jun-16 23:30N 37°20' W 000°49'611.5
2018-Jun-16 22:57N 37°15' W 000°55'511.7
2018-Jun-16 22:30N 37°12' W 001°00'1111.7
2018-Jun-16 21:36N 37°05' W 001°10'112.1
2018-Jun-16 21:30N 37°04' W 001°11'19011.8
2018-Jun-16 05:24N 36°03' W 004°55'612.9
2018-Jun-16 04:58N 36°01' W 005°01'613.5
2018-Jun-16 04:30N 36°00' W 005°09'713.5
2018-Jun-16 04:00N 35°60' W 005°17'713.0
2018-Jun-16 03:30N 35°58' W 005°25'1610.0
2018-Jun-16 01:53N 35°55' W 005°45'4 8.1
2018-Jun-16 01:26N 35°54' W 005°49'3210.4
2018-Jun-15 22:21N 35°57' W 006°29'411.6
2018-Jun-15 21:59N 35°58' W 006°34'612.0
2018-Jun-15 21:30N 35°59' W 006°41'4711.9
2018-Jun-15 17:35N 36°12' W 007°36'511.5
2018-Jun-15 17:07N 36°14' W 007°43'111.7
2018-Jun-15 17:00N 36°14' W 007°44'611.7
2018-Jun-15 16:30N 36°16' W 007°51'611.6
2018-Jun-15 16:00N 36°17' W 007°58'611.6
2018-Jun-15 15:30N 36°19' W 008°05'611.7
2018-Jun-15 15:00N 36°20' W 008°12'611.9
2018-Jun-15 14:30N 36°22' W 008°19'711.9
2018-Jun-15 13:53N 36°24' W 008°28'512.0
2018-Jun-15 13:30N 36°25' W 008°33'712.2
2018-Jun-15 12:56N 36°27' W 008°42'512.1
2018-Jun-15 12:30N 36°28' W 008°48'611.9
2018-Jun-15 12:00N 36°30' W 008°55'612.0
2018-Jun-15 11:30N 36°31' W 009°02'612.0
2018-Jun-15 11:00N 36°33' W 009°09'612.2
2018-Jun-15 10:30N 36°35' W 009°17'612.2
2018-Jun-15 10:00N 36°38' W 009°23'612.2
2018-Jun-15 09:29N 36°43' W 009°28'711.3
2018-Jun-15 08:52N 36°49' W 009°33'711.6
2018-Jun-15 08:14N 36°56' W 009°35'311.6
2018-Jun-15 08:00N 36°58' W 009°36'1711.5
2018-Jun-15 06:32N 37°15' W 009°40'111.5
2018-Jun-15 06:25N 37°16' W 009°41'711.5
2018-Jun-15 05:49N 37°23' W 009°42'411.3
2018-Jun-15 05:28N 37°27' W 009°43'511.5
2018-Jun-15 05:00N 37°32' W 009°44'611.3
2018-Jun-15 04:30N 37°38' W 009°45'611.1
2018-Jun-15 03:58N 37°43' W 009°48'511.1
2018-Jun-15 03:30N 37°48' W 009°50'711.2
2018-Jun-15 02:52N 37°55' W 009°52'411.4
2018-Jun-15 02:30N 37°59' W 009°53'611.3
2018-Jun-15 02:00N 38°05' W 009°55'611.7
2018-Jun-15 01:30N 38°10' W 009°56'611.7
2018-Jun-15 01:00N 38°16' W 009°58'611.5
2018-Jun-15 00:30N 38°22' W 009°59'611.6
2018-Jun-15 00:00N 38°27' W 010°01'611.8
2018-Jun-14 23:30N 38°33' W 010°02'611.8
2018-Jun-14 22:59N 38°39' W 010°04'612.0
2018-Jun-14 22:30N 38°45' W 010°05'611.8
2018-Jun-14 22:01N 38°51' W 010°05'611.7
2018-Jun-14 21:30N 38°57' W 010°03'612.4
2018-Jun-14 21:00N 39°03' W 010°02'612.1
2018-Jun-14 20:30N 39°09' W 010°01'612.2
2018-Jun-14 20:00N 39°15' W 009°60'611.9
2018-Jun-14 19:30N 39°20' W 009°57'1611.2
2018-Jun-14 18:05N 39°32' W 009°44'  
2018-Jun-11 17:11N 39°37' W 009°38'211.1
2018-Jun-11 17:00N 39°35' W 009°40'611.1
2018-Jun-11 16:29N 39°31' W 009°45'510.6
2018-Jun-11 16:00N 39°26' W 009°47'611.4
2018-Jun-11 15:30N 39°20' W 009°48'611.4
2018-Jun-11 15:00N 39°15' W 009°48'611.4
2018-Jun-11 14:30N 39°09' W 009°49'611.3
2018-Jun-11 14:00N 39°03' W 009°49'611.3
2018-Jun-11 13:30N 38°58' W 009°49'611.6
2018-Jun-11 13:00N 38°52' W 009°50'611.5
2018-Jun-11 12:30N 38°46' W 009°50'611.5
2018-Jun-11 12:00N 38°40' W 009°51'611.1
2018-Jun-11 11:30N 38°35' W 009°52'611.2
2018-Jun-11 11:00N 38°30' W 009°55'611.3
2018-Jun-11 10:30N 38°25' W 009°58'611.2
2018-Jun-11 10:00N 38°19' W 010°00'  
Track history (hours):
 
Tides and Currents Weather Stations Pressure Air Temp Water Temp Dewpoint Dewpoint Depression Visibility Wind Speed Wind Dir Waves Ship Positions

Finita R

Last reported at 2018-Jun-20 18:51 UTC. Time now 2018-Jun-20 21:07 UTC.
Position N 39°37' W 000°09'.

Length 100 m; draft 6.5 m.

Type: Cargo ship. MMSI: 225388000.

Date/timePositionNaut miles runAvg speedWind from/ knotsBaromVisibWave heightAir tempDewpointWater temp
2018-Jun-20 18:51N 39°37' W 000°09'0 0.1
2018-Jun-20 18:27N 39°37' W 000°09'0 0.1
2018-Jun-20 18:00N 39°37' W 000°09'0 0.0
2018-Jun-20 17:30N 39°37' W 000°09'0 0.0
2018-Jun-20 17:00N 39°37' W 000°09'0 0.0
2018-Jun-20 16:30N 39°37' W 000°09'0 0.0
2018-Jun-20 15:57N 39°37' W 000°09'0 0.0
2018-Jun-20 15:27N 39°37' W 000°09'0 0.0
2018-Jun-20 15:00N 39°37' W 000°09'0 0.0
2018-Jun-20 14:30N 39°37' W 000°09'0 0.0
2018-Jun-20 14:00N 39°37' W 000°09'0 0.0
2018-Jun-20 13:30N 39°37' W 000°09'0 0.0
2018-Jun-20 12:48N 39°37' W 000°09'0 0.0
2018-Jun-20 12:15N 39°37' W 000°09'0 0.0
2018-Jun-20 12:00N 39°37' W 000°09'0 0.0
2018-Jun-20 11:30N 39°37' W 000°09'0 0.0
2018-Jun-20 11:00N 39°37' W 000°09'23 0.7
2018-Jun-18 23:39N 39°58' E 000°03'0 0.0
2018-Jun-18 23:21N 39°58' E 000°03'15 0.5
2018-Jun-17 13:45N 39°44' E 000°11'311.7
2018-Jun-17 13:30N 39°41' E 000°12'5112.1
2018-Jun-17 09:19N 38°52' E 000°27'711.7
2018-Jun-17 08:41N 38°44' E 000°29'211.8
2018-Jun-17 08:30N 38°43' E 000°28'611.5
2018-Jun-17 08:00N 38°38' E 000°24'611.9
2018-Jun-17 07:30N 38°33' E 000°19'611.5
2018-Jun-17 07:00N 38°28' E 000°15'611.5
2018-Jun-17 06:28N 38°23' E 000°11'611.5
2018-Jun-17 05:59N 38°18' E 000°07'611.4
2018-Jun-17 05:30N 38°14' E 000°04'611.5
2018-Jun-17 05:00N 38°09' W 000°01'611.5
2018-Jun-17 04:30N 38°04' W 000°05'611.6
2018-Jun-17 03:59N 37°59' W 000°09'611.7
2018-Jun-17 03:29N 37°54' W 000°13'611.6
2018-Jun-17 02:59N 37°49' W 000°17'611.3
2018-Jun-17 02:30N 37°45' W 000°21'611.2
2018-Jun-17 02:00N 37°40' W 000°25'611.1
2018-Jun-17 01:30N 37°36' W 000°29'611.3
2018-Jun-17 01:00N 37°31' W 000°33'611.5
2018-Jun-17 00:30N 37°27' W 000°39'611.5
2018-Jun-17 00:00N 37°24' W 000°44'611.4
2018-Jun-16 23:30N 37°20' W 000°49'611.5
2018-Jun-16 22:57N 37°15' W 000°55'511.7
2018-Jun-16 22:30N 37°12' W 001°00'1111.7
2018-Jun-16 21:36N 37°05' W 001°10'112.1
2018-Jun-16 21:30N 37°04' W 001°11'19011.8
2018-Jun-16 05:24N 36°03' W 004°55'612.9
2018-Jun-16 04:58N 36°01' W 005°01'613.5
2018-Jun-16 04:30N 36°00' W 005°09'713.5
2018-Jun-16 04:00N 35°60' W 005°17'713.0
2018-Jun-16 03:30N 35°58' W 005°25'1610.0
2018-Jun-16 01:53N 35°55' W 005°45'4 8.1
2018-Jun-16 01:26N 35°54' W 005°49'3210.4
2018-Jun-15 22:21N 35°57' W 006°29'411.6
2018-Jun-15 21:59N 35°58' W 006°34'612.0
2018-Jun-15 21:30N 35°59' W 006°41'4711.9
2018-Jun-15 17:35N 36°12' W 007°36'511.5
2018-Jun-15 17:07N 36°14' W 007°43'111.7
2018-Jun-15 17:00N 36°14' W 007°44'611.7
2018-Jun-15 16:30N 36°16' W 007°51'611.6
2018-Jun-15 16:00N 36°17' W 007°58'611.6
2018-Jun-15 15:30N 36°19' W 008°05'611.7
2018-Jun-15 15:00N 36°20' W 008°12'611.9
2018-Jun-15 14:30N 36°22' W 008°19'711.9
2018-Jun-15 13:53N 36°24' W 008°28'512.0
2018-Jun-15 13:30N 36°25' W 008°33'712.2
2018-Jun-15 12:56N 36°27' W 008°42'512.1
2018-Jun-15 12:30N 36°28' W 008°48'611.9
2018-Jun-15 12:00N 36°30' W 008°55'612.0
2018-Jun-15 11:30N 36°31' W 009°02'612.0
2018-Jun-15 11:00N 36°33' W 009°09'612.2
2018-Jun-15 10:30N 36°35' W 009°17'612.2
2018-Jun-15 10:00N 36°38' W 009°23'612.2
2018-Jun-15 09:29N 36°43' W 009°28'711.3
2018-Jun-15 08:52N 36°49' W 009°33'711.6
2018-Jun-15 08:14N 36°56' W 009°35'311.6
2018-Jun-15 08:00N 36°58' W 009°36'1711.5
2018-Jun-15 06:32N 37°15' W 009°40'111.5
2018-Jun-15 06:25N 37°16' W 009°41'711.5
2018-Jun-15 05:49N 37°23' W 009°42'411.3
2018-Jun-15 05:28N 37°27' W 009°43'511.5
2018-Jun-15 05:00N 37°32' W 009°44'611.3
2018-Jun-15 04:30N 37°38' W 009°45'611.1
2018-Jun-15 03:58N 37°43' W 009°48'511.1
2018-Jun-15 03:30N 37°48' W 009°50'711.2
2018-Jun-15 02:52N 37°55' W 009°52'411.4
2018-Jun-15 02:30N 37°59' W 009°53'611.3
2018-Jun-15 02:00N 38°05' W 009°55'611.7
2018-Jun-15 01:30N 38°10' W 009°56'611.7
2018-Jun-15 01:00N 38°16' W 009°58'611.5
2018-Jun-15 00:30N 38°22' W 009°59'611.6
2018-Jun-15 00:00N 38°27' W 010°01'611.8
2018-Jun-14 23:30N 38°33' W 010°02'611.8
2018-Jun-14 22:59N 38°39' W 010°04'612.0
2018-Jun-14 22:30N 38°45' W 010°05'611.8
2018-Jun-14 22:01N 38°51' W 010°05'611.7
2018-Jun-14 21:30N 38°57' W 010°03'612.4
2018-Jun-14 21:00N 39°03' W 010°02'612.1
2018-Jun-14 20:30N 39°09' W 010°01'612.2
2018-Jun-14 20:00N 39°15' W 009°60'611.9
2018-Jun-14 19:30N 39°20' W 009°57'1611.2
2018-Jun-14 18:05N 39°32' W 009°44'  
2018-Jun-11 17:11N 39°37' W 009°38'211.1
2018-Jun-11 17:00N 39°35' W 009°40'611.1
2018-Jun-11 16:29N 39°31' W 009°45'510.6
2018-Jun-11 16:00N 39°26' W 009°47'611.4
2018-Jun-11 15:30N 39°20' W 009°48'611.4
2018-Jun-11 15:00N 39°15' W 009°48'611.4
2018-Jun-11 14:30N 39°09' W 009°49'611.3
2018-Jun-11 14:00N 39°03' W 009°49'611.3
2018-Jun-11 13:30N 38°58' W 009°49'611.6
2018-Jun-11 13:00N 38°52' W 009°50'611.5
2018-Jun-11 12:30N 38°46' W 009°50'611.5
2018-Jun-11 12:00N 38°40' W 009°51'611.1
2018-Jun-11 11:30N 38°35' W 009°52'611.2
2018-Jun-11 11:00N 38°30' W 009°55'611.3
2018-Jun-11 10:30N 38°25' W 009°58'611.2
2018-Jun-11 10:00N 38°19' W 010°00'  

Dump ship's entire track history